Time;durP1;ratioP1;P1;durP2;ratioP2;P2;SDS_P1;SDS_P2;PMS_P1;PMS_P2;Temp;Humidity;BMP_temperature;BMP_pressure;BME280_temperature;BME280_humidity;BME280_pressure;Samples;Min_cycle;Max_cycle;Signal;HPM_P1;HPM_P2
2022/10/13 00:01:44;;;;;;;14.17;10.90;;;8.90;99.90;;;;;;5050630;28;20913;-51
2022/10/13 00:04:09;;;;;;;13.00;11.60;;;8.90;99.90;;;;;;5059810;28;20192;-49
2022/10/13 00:06:35;;;;;;;12.33;10.33;;;8.90;99.90;;;;;;5066554;28;20204;-51
2022/10/13 00:09:01;;;;;;;13.37;10.40;;;8.90;99.90;;;;;;5073109;28;20280;-49
2022/10/13 00:11:28;;;;;;;14.77;10.47;;;8.90;99.90;;;;;;5066049;28;20243;-50
2022/10/13 00:13:56;;;;;;;12.10;10.37;;;8.90;99.90;;;;;;5067038;28;20270;-53
2022/10/13 00:16:22;;;;;;;13.70;11.30;;;8.90;99.90;;;;;;5067100;28;20438;-50
2022/10/13 00:18:48;;;;;;;15.00;10.93;;;8.90;99.90;;;;;;5061896;28;20439;-52
2022/10/13 00:21:16;;;;;;;16.23;11.13;;;8.80;99.90;;;;;;5053953;28;20601;-48
2022/10/13 00:23:42;;;;;;;12.10;10.80;;;8.80;99.90;;;;;;5065420;28;20446;-49
2022/10/13 00:26:10;;;;;;;15.43;10.43;;;8.80;99.90;;;;;;5063785;28;20922;-49
2022/10/13 00:28:36;;;;;;;14.10;10.50;;;8.80;99.90;;;;;;5057194;28;20690;-51
2022/10/13 00:31:02;;;;;;;14.40;11.10;;;8.70;99.90;;;;;;5063309;28;20439;-51
2022/10/13 00:33:28;;;;;;;14.23;10.77;;;8.80;99.90;;;;;;5057312;28;20439;-51
2022/10/13 00:35:53;;;;;;;14.57;10.20;;;8.70;99.90;;;;;;5066590;28;20528;-51
2022/10/13 00:38:20;;;;;;;11.60;10.40;;;8.70;99.90;;;;;;5054144;28;20655;-51
2022/10/13 00:40:49;;;;;;;16.80;11.03;;;8.70;99.90;;;;;;5062916;28;20204;-47
2022/10/13 00:43:46;;;;;;;12.57;10.47;;;8.70;99.90;;;;;;5060274;28;20435;-51
2022/10/13 00:46:11;;;;;;;13.73;10.57;;;8.60;99.90;;;;;;5064299;28;20431;-50
2022/10/13 00:48:37;;;;;;;16.27;11.67;;;8.50;99.90;;;;;;5057924;28;20492;-47
2022/10/13 00:51:03;;;;;;;14.10;11.00;;;8.50;99.90;;;;;;5059628;28;20271;-47
2022/10/13 00:53:33;;;;;;;16.30;10.40;;;8.50;99.90;;;;;;5058059;28;20188;-48
2022/10/13 00:55:59;;;;;;;13.13;11.03;;;8.40;99.90;;;;;;5065250;28;20512;-47
2022/10/13 00:58:30;;;;;;;14.90;11.63;;;8.40;99.90;;;;;;5067272;28;20766;-49
2022/10/13 01:00:56;;;;;;;14.23;10.50;;;8.40;99.90;;;;;;5067026;28;20471;-46
2022/10/13 01:03:22;;;;;;;13.93;11.10;;;8.40;99.90;;;;;;5054845;28;20521;-50
2022/10/13 01:05:50;;;;;;;14.77;10.97;;;8.40;99.90;;;;;;5055230;28;20442;-54
2022/10/13 01:08:17;;;;;;;14.60;11.67;;;8.30;99.90;;;;;;5063253;28;20498;-45
2022/10/13 01:11:04;;;;;;;16.23;12.13;;;8.30;99.90;;;;;;5063754;28;20430;-45
2022/10/13 01:13:36;;;;;;;15.97;12.70;;;8.30;99.90;;;;;;5066477;28;20437;-49
2022/10/13 01:16:12;;;;;;;14.20;11.63;;;8.30;99.90;;;;;;5069728;28;20493;-49
2022/10/13 01:18:59;;;;;;;18.83;12.50;;;8.20;99.90;;;;;;5060505;28;20517;-48
2022/10/13 01:21:58;;;;;;;15.83;12.57;;;8.30;99.90;;;;;;5069318;28;20439;-46
2022/10/13 01:24:40;;;;;;;21.43;11.90;;;8.30;99.90;;;;;;5059575;28;20438;-47
2022/10/13 01:27:24;;;;;;;13.33;11.07;;;8.30;99.90;;;;;;5068425;28;20431;-51
2022/10/13 01:30:16;;;;;;;16.20;12.17;;;8.30;99.90;;;;;;5069477;28;20453;-46
2022/10/13 01:32:44;;;;;;;17.30;13.90;;;8.30;99.90;;;;;;5060386;28;20419;-49
2022/10/13 01:35:24;;;;;;;16.40;12.03;;;8.40;99.90;;;;;;5067254;28;20452;-46
2022/10/13 01:38:13;;;;;;;15.13;11.77;;;8.50;99.90;;;;;;5070435;28;20550;-50
2022/10/13 01:40:48;;;;;;;18.10;12.50;;;8.50;99.90;;;;;;5068661;28;20845;-48
2022/10/13 01:43:20;;;;;;;15.17;11.80;;;8.60;99.90;;;;;;5058528;28;20431;-48
2022/10/13 01:45:49;;;;;;;14.10;11.60;;;8.60;99.90;;;;;;5061680;28;20446;-51
2022/10/13 01:48:16;;;;;;;16.77;13.70;;;8.60;99.90;;;;;;5064255;28;20828;-48
2022/10/13 01:50:43;;;;;;;19.37;13.30;;;8.70;99.90;;;;;;5070726;28;20477;-47
2022/10/13 01:53:10;;;;;;;17.57;12.87;;;8.80;99.90;;;;;;5070197;28;20447;-48
2022/10/13 01:55:36;;;;;;;15.00;12.73;;;8.80;99.90;;;;;;5062461;28;20472;-48
2022/10/13 01:58:01;;;;;;;15.97;11.93;;;8.80;99.90;;;;;;5062674;28;20870;-49
2022/10/13 02:00:35;;;;;;;19.37;12.10;;;8.80;99.90;;;;;;5066402;28;20973;-49
2022/10/13 02:03:16;;;;;;;14.10;10.93;;;8.80;99.90;;;;;;5061466;28;20181;-45
2022/10/13 02:05:54;;;;;;;15.57;13.03;;;8.90;99.90;;;;;;5058113;28;20836;-50
2022/10/13 02:08:36;;;;;;;14.60;11.60;;;8.80;99.90;;;;;;5065699;28;20439;-48
2022/10/13 02:11:08;;;;;;;15.70;11.40;;;8.80;99.90;;;;;;5069773;28;20563;-52
2022/10/13 02:13:35;;;;;;;14.43;11.70;;;8.80;99.90;;;;;;5055520;28;20782;-50
2022/10/13 02:16:02;;;;;;;17.53;13.10;;;8.90;99.90;;;;;;5060042;28;21033;-48
2022/10/13 02:18:33;;;;;;;14.97;11.67;;;8.90;99.90;;;;;;5071173;28;20751;-51
2022/10/13 02:21:00;;;;;;;15.10;11.93;;;9.00;99.90;;;;;;5070606;28;20471;-46
2022/10/13 02:23:26;;;;;;;15.20;12.40;;;8.90;99.90;;;;;;5069330;28;20486;-47
2022/10/13 02:25:54;;;;;;;15.83;12.30;;;8.90;99.90;;;;;;5070766;28;20439;-48
2022/10/13 02:28:20;;;;;;;16.90;11.90;;;8.80;99.90;;;;;;5070561;28;20422;-49
2022/10/13 02:30:46;;;;;;;16.83;12.17;;;8.70;99.90;;;;;;5063397;28;20921;-44
2022/10/13 02:33:13;;;;;;;14.87;11.90;;;8.70;99.90;;;;;;5070566;28;20510;-47
2022/10/13 02:35:38;;;;;;;22.30;12.83;;;8.60;99.90;;;;;;5069658;28;20203;-46
2022/10/13 02:38:04;;;;;;;15.10;11.70;;;8.60;99.90;;;;;;5056448;28;20992;-47
2022/10/13 02:40:30;;;;;;;16.00;12.10;;;8.60;99.90;;;;;;5069262;28;20271;-49
2022/10/13 02:42:55;;;;;;;15.23;11.60;;;8.70;99.90;;;;;;5069829;28;20193;-49
2022/10/13 02:45:21;;;;;;;17.13;12.60;;;8.70;99.90;;;;;;5070172;28;20292;-47
2022/10/13 02:47:48;;;;;;;16.87;12.33;;;8.80;99.90;;;;;;5067612;28;20211;-49
2022/10/13 02:50:14;;;;;;;14.77;11.90;;;8.70;99.90;;;;;;5063334;28;20496;-49
2022/10/13 02:52:39;;;;;;;19.60;12.80;;;8.70;99.90;;;;;;5070213;28;20432;-50
2022/10/13 02:55:06;;;;;;;16.67;12.70;;;8.70;99.90;;;;;;5065312;28;20631;-51
2022/10/13 02:57:32;;;;;;;15.10;12.87;;;8.70;99.90;;;;;;5061170;28;20844;-50
2022/10/13 02:59:57;;;;;;;16.10;12.33;;;8.60;99.90;;;;;;5056363;28;20566;-49
2022/10/13 03:02:24;;;;;;;15.30;12.37;;;8.60;99.90;;;;;;5051378;28;20471;-48
2022/10/13 03:04:50;;;;;;;15.67;12.43;;;8.70;99.90;;;;;;5071140;28;20227;-47
2022/10/13 03:07:16;;;;;;;16.50;12.23;;;8.60;99.90;;;;;;5062009;28;20476;-47
2022/10/13 03:09:41;;;;;;;16.30;12.93;;;8.60;99.90;;;;;;5068129;28;20223;-48
2022/10/13 03:12:07;;;;;;;16.80;13.13;;;8.60;99.90;;;;;;5063032;28;20586;-48
2022/10/13 03:14:33;;;;;;;16.30;11.90;;;8.60;99.90;;;;;;5056730;28;20617;-46
2022/10/13 03:16:58;;;;;;;15.90;12.50;;;8.60;99.90;;;;;;5055703;28;20272;-50
2022/10/13 03:19:24;;;;;;;17.53;13.20;;;8.70;99.90;;;;;;5068924;28;20292;-46
2022/10/13 03:21:49;;;;;;;19.47;11.67;;;8.70;99.90;;;;;;5061883;28;20201;-47
2022/10/13 03:24:15;;;;;;;17.60;12.80;;;8.60;99.90;;;;;;5058732;28;20726;-50
2022/10/13 03:26:40;;;;;;;13.50;11.70;;;8.60;99.90;;;;;;5063962;28;20200;-48
2022/10/13 03:29:06;;;;;;;17.07;12.40;;;8.60;99.90;;;;;;5065855;28;20213;-46
2022/10/13 03:31:32;;;;;;;15.07;12.37;;;8.50;99.90;;;;;;5066473;28;20185;-49
2022/10/13 03:33:57;;;;;;;13.20;11.37;;;8.40;99.90;;;;;;5057341;28;20185;-48
2022/10/13 03:36:23;;;;;;;16.37;12.00;;;8.50;99.90;;;;;;5060193;28;20236;-46
2022/10/13 03:38:48;;;;;;;17.07;12.00;;;8.40;99.90;;;;;;5057400;28;20189;-49
2022/10/13 03:41:16;;;;;;;18.10;12.50;;;8.40;99.90;;;;;;5060640;28;20210;-49
2022/10/13 03:43:43;;;;;;;16.67;12.70;;;8.30;99.90;;;;;;5063951;28;20192;-50
2022/10/13 03:46:11;;;;;;;18.63;13.20;;;8.30;99.90;;;;;;5056141;28;20446;-48
2022/10/13 03:48:37;;;;;;;18.40;13.27;;;8.20;99.90;;;;;;5061424;28;20450;-50
2022/10/13 03:51:07;;;;;;;18.83;13.13;;;8.20;99.90;;;;;;5066543;28;20914;-48
2022/10/13 03:53:33;;;;;;;15.43;12.70;;;8.20;99.90;;;;;;5056694;28;20945;-49
2022/10/13 03:56:00;;;;;;;15.60;12.90;;;8.20;99.90;;;;;;5066927;28;20419;-51
2022/10/13 03:58:27;;;;;;;17.47;12.60;;;8.10;99.90;;;;;;5062423;28;20529;-49
2022/10/13 04:00:53;;;;;;;17.73;13.43;;;8.10;99.90;;;;;;5067316;28;20470;-51
2022/10/13 04:03:19;;;;;;;17.50;14.43;;;8.10;99.90;;;;;;5066139;28;20505;-51
2022/10/13 04:05:45;;;;;;;17.00;13.50;;;8.10;99.90;;;;;;5051330;28;20238;-47
2022/10/13 04:08:11;;;;;;;18.43;13.20;;;8.10;99.90;;;;;;5058441;28;20192;-51
2022/10/13 04:10:37;;;;;;;19.63;14.77;;;8.10;99.90;;;;;;5065173;28;20518;-49
2022/10/13 04:13:02;;;;;;;19.00;14.50;;;8.20;99.90;;;;;;5064084;28;20936;-48
2022/10/13 04:15:28;;;;;;;19.47;13.50;;;8.20;99.90;;;;;;5062211;28;20275;-48
2022/10/13 04:17:54;;;;;;;17.33;13.20;;;8.30;99.90;;;;;;5058081;28;20272;-51
2022/10/13 04:20:19;;;;;;;19.90;15.20;;;8.30;99.90;;;;;;5048836;28;20236;-51
2022/10/13 04:22:45;;;;;;;16.77;14.20;;;8.40;99.90;;;;;;5052171;28;20230;-51
2022/10/13 04:25:10;;;;;;;20.27;13.77;;;8.40;99.90;;;;;;5054459;28;20224;-49
2022/10/13 04:27:38;;;;;;;21.27;14.97;;;8.40;99.90;;;;;;5054123;28;20244;-48
2022/10/13 04:30:05;;;;;;;16.97;13.53;;;8.50;99.90;;;;;;5055798;28;21073;-53
2022/10/13 04:32:31;;;;;;;17.13;13.47;;;8.60;99.90;;;;;;5046024;28;20553;-49
2022/10/13 04:34:57;;;;;;;18.00;14.67;;;8.60;99.90;;;;;;5046726;28;20532;-54
2022/10/13 04:37:23;;;;;;;19.57;14.27;;;8.60;99.90;;;;;;5046028;28;20571;-51
2022/10/13 04:39:49;;;;;;;20.10;13.90;;;8.70;99.90;;;;;;5051808;28;20244;-49
2022/10/13 04:42:15;;;;;;;20.97;13.57;;;8.80;99.90;;;;;;5062782;28;20589;-48
2022/10/13 04:44:40;;;;;;;16.67;13.77;;;8.90;99.90;;;;;;5063164;28;20654;-49
2022/10/13 04:47:06;;;;;;;17.33;13.60;;;9.00;99.90;;;;;;5064100;28;20182;-51
2022/10/13 04:49:32;;;;;;;15.73;12.90;;;9.00;99.90;;;;;;5061948;28;20199;-48
2022/10/13 04:51:57;;;;;;;17.07;13.27;;;9.00;99.90;;;;;;5059776;28;20220;-47
2022/10/13 04:54:23;;;;;;;14.97;12.00;;;9.00;99.90;;;;;;5058675;28;20659;-49
2022/10/13 04:56:49;;;;;;;18.20;13.83;;;9.00;99.90;;;;;;5063042;28;20657;-46
2022/10/13 04:59:14;;;;;;;19.27;13.90;;;9.00;99.90;;;;;;5064758;28;20177;-46
2022/10/13 05:01:40;;;;;;;17.50;14.10;;;9.00;99.90;;;;;;5067906;28;20806;-48
2022/10/13 05:04:06;;;;;;;17.60;13.40;;;9.00;99.90;;;;;;5056243;28;20182;-49
2022/10/13 05:06:34;;;;;;;16.73;13.43;;;9.00;99.90;;;;;;5072139;28;20423;-49
2022/10/13 05:09:00;;;;;;;18.20;13.50;;;9.00;99.90;;;;;;5072643;28;20495;-51
2022/10/13 05:11:27;;;;;;;16.87;13.90;;;9.10;99.90;;;;;;5064977;28;20428;-50
2022/10/13 05:13:54;;;;;;;17.70;13.80;;;9.10;99.90;;;;;;5062349;28;20432;-50
2022/10/13 05:16:21;;;;;;;19.10;14.60;;;9.10;99.90;;;;;;5055191;28;21242;-49
2022/10/13 05:18:47;;;;;;;17.17;13.10;;;9.20;99.90;;;;;;5064107;28;20483;-50
2022/10/13 05:21:19;;;;;;;18.10;12.20;;;9.20;99.90;;;;;;5071025;28;21048;-52
2022/10/13 05:23:45;;;;;;;18.93;14.43;;;9.30;99.90;;;;;;5066187;28;20432;-50
2022/10/13 05:26:14;;;;;;;19.90;14.17;;;9.40;99.90;;;;;;5065474;28;20419;-51
2022/10/13 05:28:40;;;;;;;15.67;13.60;;;9.40;99.90;;;;;;5063293;28;20428;-52
2022/10/13 05:31:18;;;;;;;16.47;12.93;;;9.40;99.90;;;;;;5060913;28;20461;-51
2022/10/13 05:33:45;;;;;;;18.77;12.70;;;9.40;99.90;;;;;;5067458;28;20188;-52
2022/10/13 05:36:13;;;;;;;17.50;13.47;;;9.30;99.90;;;;;;5055063;28;20574;-53
2022/10/13 05:38:39;;;;;;;22.30;13.70;;;9.30;99.90;;;;;;5065779;28;20436;-53
2022/10/13 05:41:07;;;;;;;18.23;14.43;;;9.30;99.90;;;;;;5057683;28;20474;-52
2022/10/13 05:43:33;;;;;;;20.63;14.33;;;9.30;99.90;;;;;;5080816;28;20177;-52
2022/10/13 05:45:59;;;;;;;16.23;13.33;;;9.40;99.90;;;;;;5052432;28;20579;-53
2022/10/13 05:48:26;;;;;;;19.43;14.37;;;9.40;99.90;;;;;;5071588;28;20786;-49
2022/10/13 05:50:52;;;;;;;16.17;12.90;;;9.40;99.90;;;;;;5072120;28;20538;-52
2022/10/13 05:53:18;;;;;;;18.63;14.00;;;9.40;99.90;;;;;;5057644;28;20420;-48
2022/10/13 05:55:44;;;;;;;19.10;14.80;;;9.50;99.90;;;;;;5052035;28;20424;-52
2022/10/13 05:58:10;;;;;;;16.10;13.63;;;9.50;99.90;;;;;;5059298;28;20456;-51
2022/10/13 06:00:36;;;;;;;18.03;14.10;;;9.50;99.90;;;;;;5068115;28;20459;-51
2022/10/13 06:03:08;;;;;;;18.37;14.27;;;9.50;99.90;;;;;;5068576;28;20264;-53
2022/10/13 06:05:33;;;;;;;16.60;12.60;;;9.60;99.90;;;;;;5058260;28;20187;-52
2022/10/13 06:07:59;;;;;;;15.07;13.47;;;9.70;99.90;;;;;;5070273;28;21260;-50
2022/10/13 06:10:25;;;;;;;15.23;13.20;;;9.80;99.90;;;;;;5070612;28;20181;-49
2022/10/13 06:12:51;;;;;;;17.73;13.70;;;9.90;99.90;;;;;;5069858;28;20186;-51
2022/10/13 06:15:17;;;;;;;18.40;13.30;;;10.00;99.90;;;;;;5057071;28;20420;-53
2022/10/13 06:17:42;;;;;;;15.60;13.07;;;10.10;99.90;;;;;;5065361;28;20189;-51
2022/10/13 06:20:09;;;;;;;19.37;13.63;;;10.20;99.90;;;;;;5066722;28;20317;-52
2022/10/13 06:22:37;;;;;;;18.47;13.50;;;10.20;99.90;;;;;;5058733;28;20185;-51
2022/10/13 06:25:05;;;;;;;17.50;12.90;;;10.20;99.90;;;;;;5064758;28;20415;-49
2022/10/13 06:27:31;;;;;;;18.40;13.87;;;10.20;99.90;;;;;;5058713;28;20407;-51
2022/10/13 06:29:56;;;;;;;16.93;13.50;;;10.30;99.90;;;;;;5070367;28;20786;-47
2022/10/13 06:32:22;;;;;;;17.53;13.40;;;10.20;99.90;;;;;;5070746;28;20412;-45
2022/10/13 06:34:48;;;;;;;16.50;13.90;;;10.30;99.90;;;;;;5069775;28;20189;-52
2022/10/13 06:37:13;;;;;;;16.90;13.27;;;10.30;99.90;;;;;;5054815;28;20586;-48
2022/10/13 06:39:39;;;;;;;17.40;14.30;;;10.30;99.90;;;;;;5055310;28;20220;-49
2022/10/13 06:42:04;;;;;;;18.87;12.53;;;10.20;99.90;;;;;;5070986;28;20216;-49
2022/10/13 06:44:31;;;;;;;14.67;12.30;;;10.20;99.90;;;;;;5069785;28;20189;-49
2022/10/13 06:46:56;;;;;;;15.40;12.87;;;10.20;99.90;;;;;;5067246;28;20181;-46
2022/10/13 06:49:22;;;;;;;14.67;12.23;;;10.30;99.90;;;;;;5059013;28;20814;-51
2022/10/13 06:51:48;;;;;;;16.00;12.50;;;10.30;99.90;;;;;;5056868;28;20193;-47
2022/10/13 06:54:14;;;;;;;15.00;13.30;;;10.40;99.90;;;;;;5063659;28;20953;-48
2022/10/13 06:56:39;;;;;;;20.57;13.30;;;10.40;99.90;;;;;;5065481;28;20690;-48
2022/10/13 06:59:05;;;;;;;19.40;15.03;;;10.30;99.90;;;;;;5063413;28;20887;-51
2022/10/13 07:01:30;;;;;;;15.07;13.20;;;10.40;99.90;;;;;;5064531;28;20185;-51
2022/10/13 07:03:56;;;;;;;17.00;13.53;;;10.40;99.90;;;;;;5068946;28;20185;-45
2022/10/13 07:06:22;;;;;;;19.60;13.83;;;10.50;99.90;;;;;;5063725;28;20267;-49
2022/10/13 07:08:47;;;;;;;16.13;13.90;;;10.50;99.90;;;;;;5064160;28;20769;-51
2022/10/13 07:11:14;;;;;;;19.37;14.10;;;10.60;99.90;;;;;;5068982;28;20472;-48
2022/10/13 07:13:41;;;;;;;15.50;13.50;;;10.70;99.90;;;;;;5056602;28;20182;-47
2022/10/13 07:16:08;;;;;;;17.50;13.63;;;10.70;99.90;;;;;;5066968;28;20925;-49
2022/10/13 07:18:34;;;;;;;17.67;13.40;;;10.70;99.90;;;;;;5061670;28;20552;-48
2022/10/13 07:21:01;;;;;;;15.50;12.70;;;10.80;99.90;;;;;;5057026;28;20496;-49
2022/10/13 07:23:27;;;;;;;18.93;13.97;;;10.90;99.90;;;;;;5057146;28;20407;-47
2022/10/13 07:25:55;;;;;;;17.10;13.90;;;11.00;99.90;;;;;;5063878;28;20838;-48
2022/10/13 07:28:21;;;;;;;17.33;13.53;;;11.20;99.90;;;;;;5056049;28;20966;-52
2022/10/13 07:30:47;;;;;;;18.37;13.70;;;11.20;99.90;;;;;;5068256;28;20573;-48
2022/10/13 07:33:12;;;;;;;15.83;13.20;;;11.30;99.90;;;;;;5069069;28;20513;-51
2022/10/13 07:35:38;;;;;;;15.03;13.47;;;11.30;99.90;;;;;;5066660;28;20991;-49
2022/10/13 07:38:04;;;;;;;17.40;14.67;;;11.30;99.90;;;;;;5064066;28;20240;-50
2022/10/13 07:40:30;;;;;;;15.87;14.17;;;11.40;99.90;;;;;;5067306;28;20267;-48
2022/10/13 07:42:56;;;;;;;14.77;13.13;;;11.40;99.90;;;;;;5067726;28;20501;-49
2022/10/13 07:45:21;;;;;;;20.43;13.00;;;11.50;99.90;;;;;;5068617;28;20781;-47
2022/10/13 07:47:47;;;;;;;16.33;13.73;;;11.70;99.90;;;;;;5062317;28;20504;-49
2022/10/13 07:50:13;;;;;;;17.97;13.80;;;11.90;99.90;;;;;;5067762;28;20780;-50
2022/10/13 07:52:39;;;;;;;18.27;13.67;;;12.20;99.90;;;;;;5058843;28;20181;-49
2022/10/13 07:55:05;;;;;;;16.43;13.30;;;12.50;99.90;;;;;;5068542;28;20196;-49
2022/10/13 07:57:30;;;;;;;16.87;13.70;;;12.80;99.90;;;;;;5062511;28;20443;-53
2022/10/13 07:59:56;;;;;;;15.33;12.27;;;13.30;99.90;;;;;;5063042;28;20465;-48
2022/10/13 08:02:21;;;;;;;15.90;12.70;;;13.80;99.90;;;;;;5066432;28;20225;-50
2022/10/13 08:04:47;;;;;;;14.33;12.83;;;14.20;99.90;;;;;;5058941;28;20209;-52
2022/10/13 08:07:15;;;;;;;15.57;13.03;;;14.60;99.90;;;;;;5063595;28;20198;-47
2022/10/13 08:09:41;;;;;;;14.17;12.77;;;15.10;99.90;;;;;;5066505;28;20452;-46
2022/10/13 08:12:07;;;;;;;15.33;13.73;;;15.40;99.90;;;;;;5072351;28;20435;-50
2022/10/13 08:14:32;;;;;;;14.03;12.67;;;15.60;99.90;;;;;;5082468;28;20433;-45
2022/10/13 08:16:58;;;;;;;14.77;13.30;;;16.10;99.90;;;;;;5065199;28;20192;-49
2022/10/13 08:19:25;;;;;;;17.20;14.00;;;16.40;99.50;;;;;;5066411;28;20210;-46
2022/10/13 08:21:51;;;;;;;15.00;12.90;;;16.60;98.00;;;;;;5069225;28;20657;-45
2022/10/13 08:24:18;;;;;;;16.03;13.80;;;16.80;98.20;;;;;;5071466;28;20427;-51
2022/10/13 08:26:45;;;;;;;15.77;14.27;;;16.30;97.30;;;;;;5072155;28;20485;-48
2022/10/13 08:29:12;;;;;;;16.03;14.20;;;16.10;98.90;;;;;;5072980;28;20972;-45
2022/10/13 08:31:37;;;;;;;16.37;14.13;;;16.10;99.40;;;;;;5070494;28;20427;-45
2022/10/13 08:34:03;;;;;;;16.67;14.90;;;16.30;99.20;;;;;;5071611;28;20430;-47
2022/10/13 08:36:29;;;;;;;17.07;15.40;;;16.20;98.90;;;;;;5072692;28;20243;-45
2022/10/13 08:38:54;;;;;;;15.83;14.13;;;16.30;99.20;;;;;;5073153;28;20154;-46
2022/10/13 08:41:32;;;;;;;14.63;12.77;;;16.30;98.80;;;;;;5071415;28;20727;-47
2022/10/13 08:44:14;;;;;;;15.17;13.63;;;16.40;99.30;;;;;;5073037;28;20173;-46
2022/10/13 08:47:03;;;;;;;15.77;13.27;;;16.60;99.20;;;;;;5072837;28;20452;-45
2022/10/13 08:49:30;;;;;;;16.73;13.60;;;17.20;98.50;;;;;;5073036;28;20625;-46
2022/10/13 08:51:57;;;;;;;16.93;15.13;;;17.70;95.70;;;;;;5073066;28;20461;-50
2022/10/13 08:54:24;;;;;;;16.20;14.70;;;17.70;94.50;;;;;;5088265;28;20450;-47
2022/10/13 08:56:51;;;;;;;15.23;13.63;;;17.90;94.30;;;;;;5088914;28;20411;-45
2022/10/13 08:59:17;;;;;;;15.57;14.17;;;17.60;94.40;;;;;;5077628;28;20425;-50
2022/10/13 09:01:50;;;;;;;17.47;14.10;;;17.90;94.40;;;;;;5065212;28;20437;-46
2022/10/13 09:04:25;;;;;;;16.67;14.87;;;18.40;93.70;;;;;;5052335;28;20425;-49
2022/10/13 09:07:05;;;;;;;16.13;14.53;;;19.10;92.00;;;;;;5060266;28;20892;-47
2022/10/13 09:09:31;;;;;;;16.73;15.03;;;19.60;89.60;;;;;;5058694;28;20427;-46
2022/10/13 09:11:57;;;;;;;15.23;13.93;;;19.80;85.80;;;;;;5071984;28;20419;-49
2022/10/13 09:14:26;;;;;;;15.83;14.33;;;19.90;84.20;;;;;;5072406;28;20188;-44
2022/10/13 09:16:54;;;;;;;16.17;14.67;;;20.30;84.10;;;;;;5071861;28;20428;-46
2022/10/13 09:19:22;;;;;;;16.20;14.80;;;20.90;81.20;;;;;;5072130;28;20427;-45
2022/10/13 09:21:52;;;;;;;14.57;13.33;;;21.60;78.20;;;;;;5072482;28;20885;-50
2022/10/13 09:24:20;;;;;;;15.47;13.97;;;21.80;70.90;;;;;;5071956;28;21023;-44
2022/10/13 09:26:49;;;;;;;14.90;13.43;;;22.20;70.70;;;;;;5067051;28;20481;-46
2022/10/13 09:29:25;;;;;;;15.77;14.50;;;22.60;68.40;;;;;;5070598;28;20434;-45
2022/10/13 09:32:06;;;;;;;15.40;13.90;;;22.60;66.70;;;;;;5070725;28;20932;-47
2022/10/13 09:34:33;;;;;;;15.37;13.97;;;22.90;66.20;;;;;;5072061;28;20399;-48
2022/10/13 09:37:04;;;;;;;15.53;14.13;;;23.30;62.80;;;;;;5071576;28;20477;-46
2022/10/13 09:39:31;;;;;;;15.77;14.40;;;23.30;59.20;;;;;;5071938;28;20964;-47
2022/10/13 09:42:20;;;;;;;14.70;13.30;;;22.80;60.50;;;;;;5071215;28;20422;-46
2022/10/13 09:44:56;;;;;;;15.13;13.90;;;23.40;61.50;;;;;;5071737;28;20526;-48
2022/10/13 09:47:21;;;;;;;14.60;13.30;;;24.10;58.60;;;;;;5070303;28;20937;-49
2022/10/13 09:50:18;;;;;;;16.03;14.47;;;24.50;56.60;;;;;;5071737;28;20415;-47
2022/10/13 09:52:45;;;;;;;15.20;13.90;;;24.40;56.30;;;;;;5070364;28;20208;-48
2022/10/13 09:55:26;;;;;;;13.97;12.57;;;25.00;55.40;;;;;;5071620;28;20415;-49
2022/10/13 09:57:54;;;;;;;14.93;13.50;;;25.40;54.80;;;;;;5070515;28;20443;-48
2022/10/13 10:00:23;;;;;;;14.50;13.07;;;25.90;51.90;;;;;;5073099;28;20470;-48
2022/10/13 10:02:56;;;;;;;15.07;13.70;;;25.80;50.40;;;;;;5056273;28;20448;-46
2022/10/13 10:05:44;;;;;;;14.70;13.57;;;26.30;49.20;;;;;;5054592;28;20440;-48
2022/10/13 10:08:28;;;;;;;15.47;13.93;;;26.30;48.00;;;;;;5052146;28;20482;-49
2022/10/13 10:10:55;;;;;;;15.47;14.03;;;25.10;49.40;;;;;;5070357;28;20467;-48
2022/10/13 10:13:23;;;;;;;16.13;14.63;;;24.10;51.80;;;;;;5066700;28;20439;-50
2022/10/13 10:15:57;;;;;;;15.80;14.40;;;23.50;53.10;;;;;;5051306;28;20477;-51
2022/10/13 10:18:50;;;;;;;16.40;14.80;;;23.20;54.90;;;;;;5065827;28;20457;-46
2022/10/13 10:21:22;;;;;;;15.40;14.00;;;22.30;56.90;;;;;;5056149;28;21301;-47
2022/10/13 10:24:01;;;;;;;15.50;14.03;;;21.70;59.00;;;;;;5059134;28;20461;-46
2022/10/13 10:26:59;;;;;;;14.73;13.33;;;21.40;61.80;;;;;;5070696;28;20455;-46
2022/10/13 10:29:54;;;;;;;15.40;13.80;;;21.70;63.60;;;;;;5066029;28;20437;-50
2022/10/13 10:32:29;;;;;;;14.13;12.73;;;22.40;60.20;;;;;;5069307;28;20439;-52
2022/10/13 10:35:11;;;;;;;13.90;12.67;;;22.50;59.80;;;;;;5069339;28;20426;-48
2022/10/13 10:38:09;;;;;;;14.90;13.50;;;22.80;60.30;;;;;;5050030;28;20471;-48
2022/10/13 10:40:53;;;;;;;17.10;13.37;;;23.10;59.10;;;;;;5055066;28;21001;-46
2022/10/13 10:43:49;;;;;;;14.93;13.63;;;23.00;59.20;;;;;;5070225;28;20412;-49
2022/10/13 10:46:18;;;;;;;15.10;13.77;;;23.30;58.80;;;;;;5070896;28;20399;-52
2022/10/13 10:48:45;;;;;;;13.73;12.57;;;23.50;57.60;;;;;;5070481;28;20753;-48
2022/10/13 10:51:13;;;;;;;15.40;14.00;;;23.50;57.50;;;;;;5070647;28;20412;-48
2022/10/13 10:53:51;;;;;;;15.00;13.70;;;23.30;56.70;;;;;;5069607;28;20809;-49
2022/10/13 10:56:39;;;;;;;15.40;13.90;;;23.60;56.40;;;;;;5070933;28;20472;-49
2022/10/13 10:59:28;;;;;;;13.93;12.77;;;23.70;56.40;;;;;;5075096;28;20586;-46
2022/10/13 11:02:05;;;;;;;15.40;12.43;;;23.60;56.50;;;;;;5056850;28;20880;-52
2022/10/13 11:04:45;;;;;;;14.67;13.27;;;23.40;56.60;;;;;;5049555;28;20484;-49
2022/10/13 11:07:13;;;;;;;13.50;12.40;;;23.30;57.90;;;;;;5074663;28;20419;-47
2022/10/13 11:09:41;;;;;;;14.00;12.90;;;23.20;57.40;;;;;;5065213;28;20427;-46
2022/10/13 11:12:19;;;;;;;14.10;12.73;;;22.80;58.10;;;;;;5065145;28;20439;-47
2022/10/13 11:14:53;;;;;;;14.67;13.17;;;22.70;61.20;;;;;;5059739;28;20517;-49
2022/10/13 11:17:27;;;;;;;14.77;13.40;;;22.80;59.80;;;;;;5063697;28;20432;-49
2022/10/13 11:19:53;;;;;;;14.20;12.87;;;22.70;59.30;;;;;;5064383;28;20467;-51
2022/10/13 11:22:29;;;;;;;12.67;11.57;;;22.80;59.20;;;;;;5077009;28;20942;-45
2022/10/13 11:25:01;;;;;;;13.97;12.50;;;22.90;59.30;;;;;;5060113;28;20940;-47
2022/10/13 11:27:39;;;;;;;12.67;11.67;;;23.30;57.10;;;;;;5055450;28;20420;-51
2022/10/13 11:30:57;;;;;;;13.40;12.10;;;23.60;57.60;;;;;;5065885;28;20801;-48
2022/10/13 11:33:53;;;;;;;12.77;11.67;;;23.80;58.20;;;;;;5032725;28;20433;-46
2022/10/13 11:36:43;;;;;;;14.03;12.80;;;24.20;56.30;;;;;;5066740;28;20969;-50
2022/10/13 11:39:25;;;;;;;13.20;11.90;;;24.20;56.40;;;;;;5059878;28;20471;-49
2022/10/13 11:42:18;;;;;;;12.83;11.53;;;24.30;55.80;;;;;;5049462;28;20754;-47
2022/10/13 11:44:53;;;;;;;12.20;11.20;;;24.70;54.40;;;;;;5052781;28;20436;-51
2022/10/13 11:47:38;;;;;;;12.10;11.00;;;25.00;55.00;;;;;;5067940;28;20439;-46
2022/10/13 11:50:30;;;;;;;11.93;10.73;;;25.40;52.50;;;;;;5066822;28;20431;-49
2022/10/13 11:53:26;;;;;;;13.23;12.03;;;25.30;52.20;;;;;;5068862;28;20418;-51
2022/10/13 11:55:57;;;;;;;13.07;11.80;;;25.40;50.30;;;;;;5054149;28;20447;-48
2022/10/13 11:58:29;;;;;;;13.10;11.80;;;25.20;49.70;;;;;;5078875;28;20939;-52
2022/10/13 12:01:05;;;;;;;12.10;10.87;;;25.00;51.90;;;;;;5068867;28;20467;-50
2022/10/13 12:03:35;;;;;;;11.97;10.90;;;25.10;51.90;;;;;;5065929;28;20524;-49
2022/10/13 12:06:32;;;;;;;11.20;10.10;;;25.30;51.50;;;;;;5064651;28;20453;-49
2022/10/13 12:09:01;;;;;;;11.60;10.33;;;25.30;51.30;;;;;;5058596;28;20443;-51
2022/10/13 12:11:35;;;;;;;11.93;11.00;;;25.50;48.30;;;;;;5055736;28;21054;-47
2022/10/13 12:14:24;;;;;;;13.63;10.20;;;25.70;49.20;;;;;;5068866;28;20415;-46
2022/10/13 12:16:54;;;;;;;12.73;11.67;;;25.30;49.50;;;;;;5068306;28;20439;-52
2022/10/13 12:19:23;;;;;;;14.13;12.37;;;25.40;48.60;;;;;;5058705;28;20439;-49
2022/10/13 12:21:51;;;;;;;13.23;11.60;;;25.40;47.70;;;;;;5065801;28;20419;-52
2022/10/13 12:24:16;;;;;;;13.37;12.00;;;25.30;47.90;;;;;;5063687;28;20439;-50
2022/10/13 12:26:42;;;;;;;11.90;10.80;;;25.00;48.50;;;;;;5061567;28;20431;-51
2022/10/13 12:29:13;;;;;;;11.67;10.63;;;24.80;51.20;;;;;;5063449;28;21045;-50
2022/10/13 12:31:44;;;;;;;12.00;11.00;;;24.50;51.80;;;;;;5068404;28;20411;-49
2022/10/13 12:34:39;;;;;;;14.13;12.30;;;24.30;52.00;;;;;;5061534;28;20942;-47
2022/10/13 12:37:33;;;;;;;12.77;11.70;;;24.10;51.80;;;;;;5049116;28;20483;-49
2022/10/13 12:40:00;;;;;;;12.27;11.10;;;24.00;51.70;;;;;;5050212;28;20501;-49
2022/10/13 12:42:31;;;;;;;13.37;12.30;;;23.70;52.60;;;;;;5065694;28;20439;-51
2022/10/13 12:44:58;;;;;;;14.37;12.80;;;23.40;52.30;;;;;;5084567;28;20411;-49
2022/10/13 12:47:37;;;;;;;13.13;12.03;;;23.10;53.70;;;;;;5079405;28;20415;-47